Time;durP1;ratioP1;P1;durP2;ratioP2;P2;SDS_P1;SDS_P2;PMS_P1;PMS_P2;Temp;Humidity;BMP_temperature;BMP_pressure;BME280_temperature;BME280_humidity;BME280_pressure;Samples;Min_cycle;Max_cycle;Signal;HPM_P1;HPM_P2
2023/07/11 00:02:25;;;;;;;5.00;4.60;;;29.80;39.90;;;;;;5062102;28;20441;-48
2023/07/11 00:04:51;;;;;;;7.77;5.20;;;29.80;39.90;;;;;;5064150;28;20504;-46
2023/07/11 00:07:16;;;;;;;5.30;4.80;;;29.70;40.00;;;;;;5071362;28;20956;-49
2023/07/11 00:09:47;;;;;;;5.87;5.07;;;29.20;41.00;;;;;;5063476;28;20252;-47
2023/07/11 00:12:13;;;;;;;4.93;4.43;;;29.20;40.70;;;;;;5077109;28;20196;-46
2023/07/11 00:14:39;;;;;;;5.40;4.90;;;29.30;40.40;;;;;;5067742;28;20446;-48
2023/07/11 00:17:05;;;;;;;4.93;4.53;;;29.40;40.30;;;;;;5068667;28;20422;-47
2023/07/11 00:19:51;;;;;;;9.33;4.50;;;29.50;40.30;;;;;;5065372;28;20279;-47
2023/07/11 00:22:17;;;;;;;5.57;4.90;;;29.50;40.40;;;;;;5061103;28;20480;-47
2023/07/11 00:24:43;;;;;;;6.40;4.63;;;29.40;40.60;;;;;;5058739;28;20489;-47
2023/07/11 00:27:12;;;;;;;4.83;4.43;;;29.40;40.50;;;;;;5059350;28;20492;-51
2023/07/11 00:29:38;;;;;;;7.87;5.80;;;29.40;40.60;;;;;;5058039;28;20271;-50
2023/07/11 00:32:05;;;;;;;6.50;5.07;;;29.30;41.00;;;;;;5060654;28;20442;-51
2023/07/11 00:34:30;;;;;;;4.83;4.30;;;29.10;41.30;;;;;;5059939;28;20452;-51
2023/07/11 00:36:56;;;;;;;4.50;4.20;;;29.10;41.30;;;;;;5059852;28;20526;-50
2023/07/11 00:39:22;;;;;;;4.80;4.40;;;29.10;41.40;;;;;;5072710;28;20194;-51
2023/07/11 00:41:47;;;;;;;5.17;4.77;;;29.10;41.40;;;;;;5074269;28;20192;-50
2023/07/11 00:44:14;;;;;;;7.20;4.40;;;29.10;41.50;;;;;;5072988;28;20595;-51
2023/07/11 00:46:41;;;;;;;5.40;4.90;;;29.10;41.60;;;;;;5068834;28;20192;-51
2023/07/11 00:49:08;;;;;;;5.20;4.70;;;29.10;41.60;;;;;;5063464;28;20507;-47
2023/07/11 00:51:57;;;;;;;5.30;4.80;;;29.10;41.60;;;;;;5068880;28;20446;-47
2023/07/11 00:54:30;;;;;;;5.10;4.60;;;29.00;41.60;;;;;;5070652;28;20476;-47
2023/07/11 00:56:59;;;;;;;5.53;5.00;;;29.00;41.70;;;;;;5068152;28;20470;-46
2023/07/11 00:59:25;;;;;;;5.60;5.10;;;29.00;41.90;;;;;;5060819;28;20477;-46
2023/07/11 01:01:59;;;;;;;6.40;5.43;;;29.00;41.80;;;;;;5066877;28;20878;-46
2023/07/11 01:04:24;;;;;;;5.53;4.87;;;29.00;41.90;;;;;;5069896;28;20481;-47
2023/07/11 01:06:50;;;;;;;7.97;5.40;;;28.80;42.00;;;;;;5067292;28;20493;-46
2023/07/11 01:09:16;;;;;;;4.70;4.30;;;28.70;42.30;;;;;;5067372;28;20647;-46
2023/07/11 01:11:56;;;;;;;5.07;4.57;;;28.00;43.70;;;;;;5073802;28;20188;-46
2023/07/11 01:14:23;;;;;;;5.47;4.87;;;27.90;44.20;;;;;;5081416;28;20257;-46
2023/07/11 01:16:49;;;;;;;6.23;5.60;;;28.10;43.90;;;;;;5074459;28;20878;-46
2023/07/11 01:19:15;;;;;;;7.60;5.53;;;28.20;43.50;;;;;;5071895;28;21024;-47
2023/07/11 01:21:40;;;;;;;6.10;5.57;;;28.20;43.40;;;;;;5077959;28;20541;-49
2023/07/11 01:24:06;;;;;;;5.50;5.00;;;28.20;43.60;;;;;;5075439;28;20759;-47
2023/07/11 01:26:32;;;;;;;7.73;4.90;;;27.40;45.10;;;;;;5074904;28;20282;-47
2023/07/11 01:28:58;;;;;;;5.93;5.33;;;27.50;45.00;;;;;;5077240;28;20443;-47
2023/07/11 01:31:24;;;;;;;6.43;5.10;;;27.70;44.60;;;;;;5072009;28;20282;-47
2023/07/11 01:33:50;;;;;;;5.50;5.00;;;27.90;44.20;;;;;;5078267;28;20522;-47
2023/07/11 01:36:15;;;;;;;6.53;5.77;;;28.00;43.90;;;;;;5077061;28;20283;-47
2023/07/11 01:38:42;;;;;;;5.10;4.63;;;28.10;43.60;;;;;;5076791;28;20250;-47
2023/07/11 01:41:08;;;;;;;5.47;4.97;;;28.20;43.60;;;;;;5072792;28;20213;-47
2023/07/11 01:43:35;;;;;;;5.57;5.00;;;28.20;43.90;;;;;;5083054;28;20434;-47
2023/07/11 01:46:01;;;;;;;5.77;5.30;;;28.00;43.60;;;;;;5072655;28;20794;-46
2023/07/11 01:48:26;;;;;;;5.97;5.03;;;28.10;43.60;;;;;;5072182;28;20434;-47
2023/07/11 01:50:52;;;;;;;5.00;4.60;;;28.20;43.50;;;;;;5075426;28;20194;-48
2023/07/11 01:53:18;;;;;;;6.27;5.70;;;28.30;43.30;;;;;;5070908;28;20195;-47
2023/07/11 01:55:53;;;;;;;5.73;5.30;;;28.40;43.20;;;;;;5078089;28;20203;-50
2023/07/11 01:58:18;;;;;;;5.50;5.00;;;28.30;43.50;;;;;;5078818;28;20257;-49
2023/07/11 02:00:44;;;;;;;5.30;4.80;;;28.30;43.30;;;;;;5074461;28;20927;-47
2023/07/11 02:03:10;;;;;;;5.83;5.33;;;28.30;43.80;;;;;;5079621;28;20223;-50
2023/07/11 02:05:35;;;;;;;5.53;4.80;;;28.30;43.30;;;;;;5063763;28;20259;-51
2023/07/11 02:08:01;;;;;;;6.30;5.30;;;28.30;43.10;;;;;;5069463;28;20561;-49
2023/07/11 02:10:26;;;;;;;5.27;4.87;;;28.20;43.40;;;;;;5066341;28;20199;-47
2023/07/11 02:12:52;;;;;;;5.70;5.20;;;28.20;43.20;;;;;;5060566;28;20235;-51
2023/07/11 02:15:17;;;;;;;5.37;4.97;;;27.70;44.50;;;;;;5064680;28;20188;-49
2023/07/11 02:17:43;;;;;;;5.83;5.00;;;27.70;44.40;;;;;;5089552;28;20206;-51
2023/07/11 02:20:09;;;;;;;5.53;5.00;;;27.80;44.20;;;;;;5082466;28;20278;-49
2023/07/11 02:22:35;;;;;;;5.63;5.10;;;28.00;43.80;;;;;;5077969;28;21354;-50
2023/07/11 02:25:00;;;;;;;5.00;4.60;;;28.10;43.70;;;;;;5078345;28;21017;-51
2023/07/11 02:27:26;;;;;;;5.17;4.77;;;28.20;43.50;;;;;;5070455;28;20196;-51
2023/07/11 02:29:51;;;;;;;5.70;5.20;;;28.30;43.20;;;;;;5072300;28;20679;-50
2023/07/11 02:32:17;;;;;;;5.23;4.73;;;28.30;43.10;;;;;;5084087;28;20187;-50
2023/07/11 02:34:42;;;;;;;5.47;4.97;;;28.30;43.30;;;;;;5070731;28;20248;-49
2023/07/11 02:37:08;;;;;;;5.80;5.33;;;28.10;43.40;;;;;;5074542;28;20221;-51
2023/07/11 02:39:34;;;;;;;5.10;4.70;;;28.10;43.40;;;;;;5068610;28;20201;-50
2023/07/11 02:41:59;;;;;;;6.80;4.90;;;28.10;43.60;;;;;;5068537;28;20192;-51
2023/07/11 02:44:25;;;;;;;6.30;5.80;;;28.10;43.50;;;;;;5079027;28;20231;-50
2023/07/11 02:46:50;;;;;;;6.20;5.40;;;28.20;43.40;;;;;;5064099;28;20242;-50
2023/07/11 02:49:16;;;;;;;5.73;5.10;;;28.20;43.30;;;;;;5075501;28;20202;-50
2023/07/11 02:51:41;;;;;;;7.63;5.17;;;28.10;43.40;;;;;;5075987;28;20188;-51
2023/07/11 02:54:07;;;;;;;6.20;5.70;;;28.10;43.40;;;;;;5081711;28;20198;-50
2023/07/11 02:56:34;;;;;;;6.30;5.70;;;28.10;43.30;;;;;;5071152;28;20207;-50
2023/07/11 02:59:00;;;;;;;7.20;5.40;;;28.10;43.50;;;;;;5066891;28;20199;-47
2023/07/11 03:01:30;;;;;;;5.93;5.23;;;28.00;43.60;;;;;;5063525;28;20944;-50
2023/07/11 03:03:55;;;;;;;6.57;5.30;;;27.90;43.80;;;;;;5078177;28;20539;-46
2023/07/11 03:06:21;;;;;;;5.93;5.43;;;27.80;44.10;;;;;;5072102;28;20437;-50
2023/07/11 03:08:47;;;;;;;7.23;5.43;;;27.70;44.40;;;;;;5079738;28;20192;-48
2023/07/11 03:11:12;;;;;;;6.30;5.77;;;27.60;44.60;;;;;;5065898;28;20192;-49
2023/07/11 03:13:38;;;;;;;6.00;5.60;;;27.50;44.70;;;;;;5070969;28;20239;-50
2023/07/11 03:16:04;;;;;;;6.57;5.97;;;27.60;44.50;;;;;;5070284;28;20237;-48
2023/07/11 03:18:30;;;;;;;6.60;5.87;;;27.60;44.70;;;;;;5068046;28;20183;-48
2023/07/11 03:21:00;;;;;;;5.97;5.47;;;27.50;44.50;;;;;;5071580;28;20941;-49
2023/07/11 03:23:27;;;;;;;6.30;5.67;;;27.50;44.60;;;;;;5066772;28;20840;-46
2023/07/11 03:25:53;;;;;;;6.10;5.50;;;27.50;44.90;;;;;;5058795;28;20517;-47
2023/07/11 03:28:18;;;;;;;5.80;5.30;;;27.60;44.70;;;;;;5063348;28;20485;-48
2023/07/11 03:30:44;;;;;;;6.10;5.60;;;27.60;44.50;;;;;;5065269;28;20477;-48
2023/07/11 03:33:09;;;;;;;6.57;6.07;;;27.60;44.70;;;;;;5074614;28;20183;-47
2023/07/11 03:35:35;;;;;;;7.23;6.63;;;27.60;44.50;;;;;;5066325;28;20196;-50
2023/07/11 03:38:01;;;;;;;6.73;6.10;;;27.70;44.30;;;;;;5057876;28;20658;-50
2023/07/11 03:40:27;;;;;;;7.13;6.43;;;27.80;44.20;;;;;;5060449;28;20240;-50
2023/07/11 03:42:52;;;;;;;9.27;6.27;;;27.80;44.00;;;;;;5083349;28;20441;-47
2023/07/11 03:45:18;;;;;;;6.80;6.20;;;27.80;44.00;;;;;;5081336;28;20280;-49
2023/07/11 03:47:44;;;;;;;6.60;5.90;;;27.70;44.20;;;;;;5072517;28;20304;-51
2023/07/11 03:50:10;;;;;;;5.70;5.10;;;27.70;44.50;;;;;;5077530;28;20214;-50
2023/07/11 03:52:35;;;;;;;6.73;5.73;;;27.40;44.70;;;;;;5067384;28;20204;-50
2023/07/11 03:55:01;;;;;;;5.80;5.30;;;27.40;44.90;;;;;;5074195;28;20441;-50
2023/07/11 03:57:26;;;;;;;5.77;5.27;;;27.10;45.70;;;;;;5068418;28;20193;-51
2023/07/11 03:59:52;;;;;;;6.20;5.70;;;27.10;46.30;;;;;;5064896;28;20199;-50
2023/07/11 04:02:18;;;;;;;6.07;5.47;;;27.20;45.30;;;;;;5064615;28;20734;-50
2023/07/11 04:04:44;;;;;;;6.57;6.07;;;27.30;45.20;;;;;;5069018;28;20220;-51
2023/07/11 04:07:09;;;;;;;7.47;6.67;;;27.40;44.80;;;;;;5075049;28;20188;-50
2023/07/11 04:09:35;;;;;;;6.43;5.83;;;27.50;44.70;;;;;;5076394;28;20675;-52
2023/07/11 04:12:01;;;;;;;6.20;5.60;;;27.50;44.60;;;;;;5078925;28;20336;-49
2023/07/11 04:14:27;;;;;;;6.40;5.80;;;27.60;44.60;;;;;;5078979;28;20506;-46
2023/07/11 04:16:52;;;;;;;6.07;5.47;;;27.70;44.50;;;;;;5070548;28;20192;-46
2023/07/11 04:19:18;;;;;;;6.37;5.87;;;27.40;44.70;;;;;;5083979;28;20274;-55
2023/07/11 04:21:43;;;;;;;6.53;5.50;;;27.30;45.20;;;;;;5072202;28;20206;-54
2023/07/11 04:24:09;;;;;;;6.20;5.70;;;27.10;45.60;;;;;;5062444;28;20711;-46
2023/07/11 04:26:34;;;;;;;7.03;6.43;;;26.50;46.90;;;;;;5062679;28;20188;-47
2023/07/11 04:29:00;;;;;;;5.97;5.50;;;26.40;47.30;;;;;;5073473;28;20195;-49
2023/07/11 04:31:26;;;;;;;7.77;5.60;;;26.50;47.10;;;;;;5073930;28;20219;-50
2023/07/11 04:33:52;;;;;;;7.63;5.60;;;26.70;46.80;;;;;;5071417;28;20539;-47
2023/07/11 04:36:18;;;;;;;7.27;6.30;;;26.80;46.50;;;;;;5065104;28;20449;-47
2023/07/11 04:38:44;;;;;;;7.30;6.60;;;26.60;46.90;;;;;;5065478;28;20211;-46
2023/07/11 04:41:10;;;;;;;7.40;6.17;;;26.60;47.10;;;;;;5071445;28;20192;-50
2023/07/11 04:43:37;;;;;;;6.53;5.93;;;26.70;46.80;;;;;;5068136;28;20433;-49
2023/07/11 04:46:04;;;;;;;6.90;6.00;;;26.80;46.70;;;;;;5059847;28;20521;-47
2023/07/11 04:48:30;;;;;;;8.60;5.77;;;26.70;46.90;;;;;;5065475;28;20444;-46
2023/07/11 04:51:03;;;;;;;6.10;5.60;;;26.40;47.50;;;;;;5073172;28;20440;-47
2023/07/11 04:53:29;;;;;;;6.20;5.60;;;26.50;47.30;;;;;;5073487;28;20584;-46
2023/07/11 04:55:56;;;;;;;6.20;5.60;;;26.60;47.10;;;;;;5082422;28;20456;-46
2023/07/11 04:58:21;;;;;;;8.43;6.60;;;26.80;46.80;;;;;;5077815;28;20442;-48
2023/07/11 05:00:47;;;;;;;6.53;5.83;;;26.90;46.50;;;;;;5072194;28;20487;-46
2023/07/11 05:03:13;;;;;;;6.23;5.73;;;27.00;46.40;;;;;;5073189;28;20219;-46
2023/07/11 05:05:38;;;;;;;5.83;5.33;;;27.10;46.20;;;;;;5072863;28;20223;-46
2023/07/11 05:08:04;;;;;;;7.73;5.43;;;27.20;45.90;;;;;;5070164;28;20694;-46
2023/07/11 05:10:29;;;;;;;6.57;5.73;;;27.20;46.10;;;;;;5066581;28;20229;-46
2023/07/11 05:12:55;;;;;;;6.80;6.10;;;27.30;46.00;;;;;;5067967;28;20270;-46
2023/07/11 05:15:21;;;;;;;6.10;5.50;;;27.40;45.80;;;;;;5067915;28;20200;-49
2023/07/11 05:17:46;;;;;;;7.47;5.57;;;27.50;45.60;;;;;;5063877;28;20200;-46
2023/07/11 05:20:12;;;;;;;6.40;5.80;;;27.50;45.50;;;;;;5071458;28;20187;-47
2023/07/11 05:22:37;;;;;;;6.57;5.97;;;27.60;45.30;;;;;;5061300;28;20822;-46
2023/07/11 05:25:04;;;;;;;10.60;7.90;;;27.70;45.40;;;;;;5062892;28;20228;-49
2023/07/11 05:27:30;;;;;;;6.43;5.80;;;27.70;45.30;;;;;;5061462;28;20605;-47
2023/07/11 05:29:56;;;;;;;7.10;6.40;;;27.80;45.20;;;;;;5078875;28;20449;-48
2023/07/11 05:32:22;;;;;;;6.50;5.90;;;27.70;45.10;;;;;;5059641;28;20500;-48
2023/07/11 05:34:47;;;;;;;6.37;5.83;;;27.70;45.10;;;;;;5062913;28;20286;-46
2023/07/11 05:37:13;;;;;;;6.03;5.53;;;27.90;45.20;;;;;;5072365;28;20200;-47
2023/07/11 05:39:39;;;;;;;5.97;5.57;;;27.80;45.20;;;;;;5083459;28;20202;-50
2023/07/11 05:42:05;;;;;;;6.23;5.53;;;27.50;45.90;;;;;;5071899;28;20439;-48
2023/07/11 05:44:30;;;;;;;6.67;6.07;;;27.30;46.30;;;;;;5075576;28;20249;-48
2023/07/11 05:46:56;;;;;;;6.87;6.27;;;27.30;46.30;;;;;;5077691;28;20199;-48
2023/07/11 05:49:22;;;;;;;8.17;5.73;;;27.50;45.90;;;;;;5081541;28;20195;-47
2023/07/11 05:51:47;;;;;;;6.10;4.97;;;27.70;45.60;;;;;;5069189;28;20267;-51
2023/07/11 05:54:13;;;;;;;6.37;5.77;;;28.00;45.10;;;;;;5069442;28;20275;-47
2023/07/11 05:56:40;;;;;;;6.47;5.97;;;28.10;44.80;;;;;;5071421;28;20196;-48
2023/07/11 05:59:06;;;;;;;7.37;6.27;;;28.20;44.50;;;;;;5063176;28;20687;-50
2023/07/11 06:01:32;;;;;;;6.27;5.43;;;28.30;44.80;;;;;;5071995;28;20490;-48
2023/07/11 06:04:06;;;;;;;9.03;6.70;;;27.50;45.90;;;;;;5066917;28;20234;-49
2023/07/11 06:06:35;;;;;;;7.43;6.73;;;27.50;46.30;;;;;;5070670;28;20436;-50
2023/07/11 06:09:00;;;;;;;8.23;5.73;;;27.40;46.60;;;;;;5064369;28;20430;-48
2023/07/11 06:11:26;;;;;;;6.90;6.10;;;27.30;46.80;;;;;;5057726;28;20443;-48
2023/07/11 06:13:51;;;;;;;5.77;5.27;;;27.40;46.40;;;;;;5066578;28;20259;-51
2023/07/11 06:16:18;;;;;;;6.77;5.70;;;27.50;46.40;;;;;;5070105;28;20219;-47
2023/07/11 06:18:47;;;;;;;8.30;6.67;;;27.40;46.30;;;;;;5070435;28;20728;-49
2023/07/11 06:21:13;;;;;;;9.70;6.47;;;27.30;46.50;;;;;;5066733;28;20430;-49
2023/07/11 06:23:39;;;;;;;6.50;5.90;;;27.40;46.60;;;;;;5072038;28;20426;-49
2023/07/11 06:26:05;;;;;;;5.50;5.10;;;27.50;46.50;;;;;;5068590;28;20203;-47
2023/07/11 06:28:31;;;;;;;6.13;5.60;;;27.60;45.50;;;;;;5071803;28;20560;-47
2023/07/11 06:30:58;;;;;;;6.93;5.20;;;27.70;45.40;;;;;;5066819;28;20442;-47
2023/07/11 06:33:24;;;;;;;6.23;5.73;;;27.90;45.20;;;;;;5071724;28;20499;-46
2023/07/11 06:35:50;;;;;;;10.53;5.30;;;28.00;44.70;;;;;;5068103;28;20890;-47
2023/07/11 06:38:17;;;;;;;6.90;5.83;;;27.90;45.00;;;;;;5070224;28;20430;-52
2023/07/11 06:40:54;;;;;;;5.63;5.13;;;27.90;45.70;;;;;;5071507;28;20188;-51
2023/07/11 06:43:21;;;;;;;8.40;6.07;;;28.00;44.70;;;;;;5064286;28;20449;-51
2023/07/11 06:45:48;;;;;;;6.27;5.77;;;27.90;44.90;;;;;;5070811;28;20844;-52
2023/07/11 06:48:18;;;;;;;6.30;5.70;;;27.90;44.80;;;;;;5071909;28;20478;-51
2023/07/11 06:50:50;;;;;;;7.27;6.57;;;27.80;45.10;;;;;;5075975;28;20449;-51
2023/07/11 06:53:16;;;;;;;6.57;5.40;;;27.90;45.00;;;;;;5063737;28;20442;-50
2023/07/11 06:55:50;;;;;;;5.30;4.80;;;28.10;44.10;;;;;;5070945;28;20418;-51
2023/07/11 06:58:16;;;;;;;8.30;4.93;;;28.30;43.20;;;;;;5057604;28;20414;-51
2023/07/11 07:00:42;;;;;;;5.73;5.20;;;28.50;42.60;;;;;;5062042;28;20530;-49
2023/07/11 07:03:12;;;;;;;6.33;5.80;;;28.60;42.30;;;;;;5071629;28;20509;-50
2023/07/11 07:05:46;;;;;;;6.50;5.90;;;28.70;42.90;;;;;;5069351;28;20486;-51
2023/07/11 07:08:12;;;;;;;6.00;5.27;;;28.70;42.00;;;;;;5069240;28;20464;-52
2023/07/11 07:10:37;;;;;;;6.27;5.67;;;28.90;42.00;;;;;;5061958;28;20978;-50
2023/07/11 07:13:03;;;;;;;6.23;5.50;;;29.10;41.70;;;;;;5067808;28;20286;-52
2023/07/11 07:15:28;;;;;;;5.10;4.60;;;29.40;41.40;;;;;;5064658;28;20200;-48
2023/07/11 07:17:54;;;;;;;5.93;5.40;;;29.70;40.80;;;;;;5073857;28;20273;-47
2023/07/11 07:20:19;;;;;;;6.13;5.63;;;30.00;39.70;;;;;;5072531;28;20196;-50
2023/07/11 07:22:45;;;;;;;9.73;5.60;;;30.10;38.90;;;;;;5070921;28;20195;-48
2023/07/11 07:25:10;;;;;;;5.90;5.40;;;30.20;39.10;;;;;;5069699;28;20220;-51
2023/07/11 07:27:36;;;;;;;6.13;5.53;;;30.50;38.80;;;;;;5062195;28;20667;-51
2023/07/11 07:30:03;;;;;;;7.10;5.93;;;30.70;38.60;;;;;;5071650;28;20188;-49
2023/07/11 07:32:29;;;;;;;5.03;4.63;;;31.00;37.80;;;;;;5077584;28;20333;-49
2023/07/11 07:34:54;;;;;;;5.63;5.00;;;31.20;37.60;;;;;;5072580;28;21079;-50
2023/07/11 07:37:20;;;;;;;5.70;5.20;;;31.30;37.60;;;;;;5071660;28;20198;-51
2023/07/11 07:39:46;;;;;;;6.50;6.00;;;31.60;37.50;;;;;;5064076;28;20269;-48
2023/07/11 07:42:11;;;;;;;6.03;5.43;;;31.90;37.20;;;;;;5058374;28;20184;-49
2023/07/11 07:44:37;;;;;;;5.60;5.07;;;32.20;36.70;;;;;;5063658;28;20219;-47
2023/07/11 07:47:02;;;;;;;6.47;5.00;;;32.10;36.30;;;;;;5062304;28;20308;-50
2023/07/11 07:49:28;;;;;;;6.13;5.07;;;32.40;36.20;;;;;;5077776;28;20953;-50
2023/07/11 07:51:53;;;;;;;6.93;5.37;;;32.60;35.50;;;;;;5086759;28;20316;-50
2023/07/11 07:54:19;;;;;;;6.23;5.40;;;32.80;35.20;;;;;;5070134;28;20183;-49
2023/07/11 07:56:45;;;;;;;5.70;5.10;;;33.00;34.80;;;;;;5071003;28;20194;-50
2023/07/11 07:59:10;;;;;;;6.50;5.90;;;33.00;34.80;;;;;;5073421;28;20195;-49
2023/07/11 08:01:36;;;;;;;5.60;5.20;;;33.20;35.40;;;;;;5073416;28;20662;-52
2023/07/11 08:04:01;;;;;;;5.93;5.00;;;33.50;34.40;;;;;;5073587;28;20571;-52
2023/07/11 08:06:27;;;;;;;8.17;5.23;;;33.70;34.00;;;;;;5074006;28;20241;-47
2023/07/11 08:08:53;;;;;;;5.47;5.07;;;33.80;33.80;;;;;;5072208;28;20192;-49
2023/07/11 08:11:20;;;;;;;7.70;5.30;;;33.80;33.70;;;;;;5068853;28;20203;-48
2023/07/11 08:13:47;;;;;;;6.20;5.70;;;33.80;33.80;;;;;;5072747;28;20490;-48
2023/07/11 08:16:12;;;;;;;5.70;5.20;;;33.90;34.50;;;;;;5062024;28;20444;-53
2023/07/11 08:18:38;;;;;;;5.77;5.27;;;34.10;33.40;;;;;;5073063;28;20858;-52
2023/07/11 08:21:04;;;;;;;5.50;5.00;;;34.20;33.20;;;;;;5069159;28;20196;-49
2023/07/11 08:23:29;;;;;;;6.00;5.50;;;34.50;32.90;;;;;;5075045;28;20202;-49
2023/07/11 08:25:56;;;;;;;6.23;5.50;;;34.60;32.60;;;;;;5064401;28;20675;-48
2023/07/11 08:28:22;;;;;;;8.17;4.90;;;34.80;32.10;;;;;;5077105;28;20248;-48
2023/07/11 08:30:48;;;;;;;6.07;5.57;;;35.00;31.60;;;;;;5058121;28;21192;-46
2023/07/11 08:33:15;;;;;;;6.10;5.40;;;35.10;31.50;;;;;;5069663;28;20206;-46
2023/07/11 08:35:41;;;;;;;6.70;6.10;;;35.30;31.50;;;;;;5073493;28;20446;-45
2023/07/11 08:38:11;;;;;;;7.07;6.20;;;35.40;31.20;;;;;;5066925;28;20438;-45
2023/07/11 08:40:46;;;;;;;6.20;5.60;;;35.40;31.10;;;;;;5070168;28;20604;-47
2023/07/11 08:43:19;;;;;;;6.10;5.60;;;35.50;31.10;;;;;;5074788;28;20528;-46
2023/07/11 08:46:10;;;;;;;6.20;5.67;;;35.70;31.30;;;;;;5072392;28;21041;-46
2023/07/11 08:48:45;;;;;;;5.97;5.37;;;35.60;31.00;;;;;;5072298;28;20516;-44
2023/07/11 08:51:38;;;;;;;5.90;5.40;;;35.60;31.20;;;;;;5063804;28;20450;-49
2023/07/11 08:54:20;;;;;;;6.80;5.97;;;35.50;31.10;;;;;;5063435;28;20446;-47
2023/07/11 08:56:47;;;;;;;7.50;6.10;;;35.60;30.90;;;;;;5061602;28;20450;-46
2023/07/11 08:59:16;;;;;;;5.60;5.20;;;35.90;31.00;;;;;;5065747;28;20443;-48
2023/07/11 09:02:01;;;;;;;6.80;6.10;;;35.90;30.80;;;;;;5064876;28;20449;-48
2023/07/11 09:04:28;;;;;;;7.77;6.93;;;36.10;30.90;;;;;;5065456;28;20591;-49
2023/07/11 09:07:06;;;;;;;7.30;6.63;;;36.20;30.80;;;;;;5082802;28;20422;-47
2023/07/11 09:09:35;;;;;;;6.53;5.87;;;36.50;30.60;;;;;;5073565;28;20425;-47
2023/07/11 09:12:10;;;;;;;6.53;5.93;;;36.60;30.80;;;;;;5073108;28;20523;-46
2023/07/11 09:14:59;;;;;;;5.90;5.50;;;37.00;30.90;;;;;;5061032;28;20472;-51
2023/07/11 09:17:29;;;;;;;6.47;5.97;;;37.40;30.00;;;;;;5062481;28;20445;-47
2023/07/11 09:20:00;;;;;;;8.43;6.60;;;37.60;29.90;;;;;;5065312;28;20451;-47
2023/07/11 09:22:50;;;;;;;7.30;6.70;;;37.80;29.40;;;;;;5072079;28;20462;-50
2023/07/11 09:25:27;;;;;;;6.47;5.80;;;38.00;29.40;;;;;;5065747;28;20496;-45
2023/07/11 09:27:57;;;;;;;7.60;5.97;;;38.10;29.50;;;;;;5064268;28;20451;-47
2023/07/11 09:30:40;;;;;;;6.87;6.37;;;38.20;29.50;;;;;;5068284;28;20437;-47
2023/07/11 09:33:20;;;;;;;7.23;6.63;;;38.30;29.40;;;;;;5064888;28;20444;-47
2023/07/11 09:35:46;;;;;;;7.13;6.43;;;38.20;30.70;;;;;;5066701;28;20441;-48
2023/07/11 09:38:34;;;;;;;8.53;7.63;;;38.30;31.20;;;;;;5070428;28;20438;-47
2023/07/11 09:41:24;;;;;;;8.33;7.63;;;38.40;31.90;;;;;;5061903;28;20195;-46
2023/07/11 09:43:50;;;;;;;7.20;6.60;;;38.40;32.80;;;;;;5070264;28;20440;-48
2023/07/11 09:46:23;;;;;;;7.60;7.00;;;38.30;32.40;;;;;;5063024;28;20503;-46
2023/07/11 09:48:56;;;;;;;8.33;6.70;;;38.40;32.40;;;;;;5054513;28;20438;-50
2023/07/11 09:51:40;;;;;;;8.50;7.00;;;38.40;31.80;;;;;;5076143;28;20479;-47
2023/07/11 09:54:27;;;;;;;7.43;6.73;;;38.20;32.00;;;;;;5070322;28;20440;-47
2023/07/11 09:56:55;;;;;;;11.23;6.70;;;38.50;31.60;;;;;;5063591;28;20446;-46
2023/07/11 09:59:21;;;;;;;8.60;7.87;;;38.70;30.80;;;;;;5069790;28;20438;-48
2023/07/11 10:01:54;;;;;;;7.50;7.00;;;39.00;30.40;;;;;;5059559;28;20445;-49
2023/07/11 10:04:25;;;;;;;8.00;7.10;;;39.20;30.60;;;;;;5065200;28;20830;-46
2023/07/11 10:07:01;;;;;;;7.27;6.67;;;39.00;29.60;;;;;;5067913;28;20517;-47
2023/07/11 10:09:32;;;;;;;7.40;6.70;;;39.00;29.10;;;;;;5070971;28;20452;-47
2023/07/11 10:12:02;;;;;;;9.53;6.70;;;39.00;29.70;;;;;;5066850;28;20445;-50
2023/07/11 10:14:35;;;;;;;7.77;6.97;;;39.20;29.20;;;;;;5068073;28;20482;-47
2023/07/11 10:17:14;;;;;;;7.80;7.00;;;39.50;29.00;;;;;;5054880;28;20434;-47
2023/07/11 10:19:40;;;;;;;7.60;6.90;;;39.70;28.60;;;;;;5070141;28;20989;-48
2023/07/11 10:22:19;;;;;;;11.80;7.50;;;39.20;28.60;;;;;;5065929;28;21022;-50
2023/07/11 10:24:47;;;;;;;7.73;6.80;;;39.20;28.80;;;;;;5072806;28;20660;-48
2023/07/11 10:27:17;;;;;;;9.70;6.73;;;39.20;28.80;;;;;;5068542;28;20945;-52
2023/07/11 10:29:47;;;;;;;7.63;6.93;;;39.10;28.80;;;;;;5067169;28;20461;-48
2023/07/11 10:32:30;;;;;;;11.13;6.40;;;39.50;28.30;;;;;;5071386;28;20429;-51
2023/07/11 10:35:00;;;;;;;7.30;6.70;;;39.90;28.00;;;;;;5071774;28;20457;-49
2023/07/11 10:37:41;;;;;;;6.97;6.03;;;40.00;28.10;;;;;;5061508;28;20481;-47
2023/07/11 10:40:28;;;;;;;7.67;7.07;;;39.90;27.80;;;;;;5057830;28;20551;-47
2023/07/11 10:43:20;;;;;;;7.67;7.03;;;39.70;28.30;;;;;;5074792;28;21209;-48
2023/07/11 10:45:47;;;;;;;7.07;6.57;;;39.50;28.80;;;;;;5063214;28;20491;-49
2023/07/11 10:48:31;;;;;;;49.63;12.47;;;39.50;29.00;;;;;;5071262;28;20469;-47
2023/07/11 10:51:18;;;;;;;7.60;6.83;;;39.80;28.50;;;;;;5065869;28;20461;-51
2023/07/11 10:53:53;;;;;;;16.70;8.60;;;39.90;28.70;;;;;;5061871;28;20971;-51
2023/07/11 10:56:23;;;;;;;12.90;7.50;;;40.10;28.40;;;;;;5065565;28;20453;-47
2023/07/11 10:58:49;;;;;;;14.13;8.33;;;40.00;28.60;;;;;;5062308;28;20840;-50
2023/07/11 11:01:18;;;;;;;11.60;7.50;;;40.00;28.50;;;;;;5064936;28;20499;-51
2023/07/11 11:03:51;;;;;;;50.80;12.33;;;40.00;28.40;;;;;;5060273;28;20286;-50
2023/07/11 11:06:28;;;;;;;12.00;8.27;;;39.90;28.30;;;;;;5062915;28;21393;-49
2023/07/11 11:09:09;;;;;;;8.17;7.40;;;39.60;28.50;;;;;;5068255;28;20442;-50
2023/07/11 11:12:12;;;;;;;8.07;7.43;;;39.60;28.70;;;;;;5071977;28;20449;-51
2023/07/11 11:14:40;;;;;;;8.17;7.20;;;39.70;28.50;;;;;;5074883;28;20475;-50
2023/07/11 11:17:29;;;;;;;7.60;7.00;;;39.70;28.40;;;;;;5069400;28;20444;-46
2023/07/11 11:20:15;;;;;;;8.13;7.30;;;40.30;28.10;;;;;;5073130;28;20951;-45
2023/07/11 11:22:46;;;;;;;7.83;7.13;;;40.60;27.90;;;;;;5063379;28;20444;-45
2023/07/11 11:25:22;;;;;;;7.40;6.80;;;40.50;27.50;;;;;;5075523;28;20492;-45
2023/07/11 11:28:18;;;;;;;8.40;7.60;;;40.40;27.20;;;;;;5069772;28;20448;-47
2023/07/11 11:30:56;;;;;;;8.00;7.40;;;40.60;27.50;;;;;;5073090;28;20441;-49
2023/07/11 11:33:27;;;;;;;7.60;7.00;;;41.10;26.80;;;;;;5072813;28;20436;-46
2023/07/11 11:36:04;;;;;;;17.43;7.30;;;41.50;26.40;;;;;;5062131;28;20464;-46
2023/07/11 11:38:51;;;;;;;8.67;8.00;;;41.20;26.50;;;;;;5065039;28;20441;-47
2023/07/11 11:41:34;;;;;;;8.03;7.33;;;40.80;27.20;;;;;;5071076;28;20445;-48
2023/07/11 11:44:03;;;;;;;8.57;7.70;;;40.40;27.50;;;;;;5069310;28;20597;-51
2023/07/11 11:46:29;;;;;;;7.77;7.17;;;40.50;27.70;;;;;;5066599;28;20458;-48
2023/07/11 11:48:58;;;;;;;8.07;7.10;;;40.50;27.70;;;;;;5061004;28;20436;-49
2023/07/11 11:51:25;;;;;;;7.63;7.10;;;40.70;27.50;;;;;;5076273;28;20303;-49
2023/07/11 11:54:11;;;;;;;8.17;7.33;;;40.30;27.80;;;;;;5068184;28;20449;-49
2023/07/11 11:56:42;;;;;;;8.50;7.80;;;40.30;27.80;;;;;;5067479;28;20477;-46
2023/07/11 11:59:22;;;;;;;8.87;7.50;;;40.50;27.90;;;;;;5069706;28;20417;-46
2023/07/11 12:01:54;;;;;;;8.53;7.70;;;40.70;27.70;;;;;;5068689;28;20476;-47
2023/07/11 12:04:34;;;;;;;9.27;8.33;;;40.60;27.80;;;;;;5069184;28;20554;-48
2023/07/11 12:07:04;;;;;;;8.90;8.00;;;40.00;28.10;;;;;;5070360;28;20923;-48
2023/07/11 12:09:51;;;;;;;8.77;7.97;;;40.40;28.10;;;;;;5070749;28;20582;-50
2023/07/11 12:12:24;;;;;;;7.87;7.30;;;40.80;27.90;;;;;;5074588;28;21030;-46
2023/07/11 12:14:53;;;;;;;8.97;8.17;;;41.00;27.20;;;;;;5061123;28;20441;-47
2023/07/11 12:17:43;;;;;;;9.27;8.37;;;41.50;27.10;;;;;;5061037;28;20820;-50
2023/07/11 12:20:13;;;;;;;7.97;7.17;;;41.80;26.90;;;;;;5051694;28;20647;-51
2023/07/11 12:22:39;;;;;;;8.50;7.80;;;42.00;26.80;;;;;;5061495;28;20450;-49
2023/07/11 12:25:07;;;;;;;8.53;7.63;;;41.90;25.80;;;;;;5074815;28;20235;-48
2023/07/11 12:27:33;;;;;;;7.50;6.80;;;41.80;26.60;;;;;;5067366;28;20594;-52
2023/07/11 12:30:12;;;;;;;9.10;8.33;;;41.80;26.40;;;;;;5059060;28;20191;-51
2023/07/11 12:32:43;;;;;;;8.30;7.60;;;41.60;26.60;;;;;;5065788;28;20190;-50
2023/07/11 12:35:09;;;;;;;8.47;7.70;;;41.80;26.90;;;;;;5070307;28;20199;-51
2023/07/11 12:37:46;;;;;;;9.17;8.40;;;41.50;27.10;;;;;;5073368;28;20186;-51
2023/07/11 12:40:16;;;;;;;8.10;7.30;;;41.60;26.80;;;;;;5065484;28;20534;-51
2023/07/11 12:42:52;;;;;;;8.50;7.78;;;41.90;27.00;;;;;;5065300;28;20977;-48
2023/07/11 12:45:24;;;;;;;8.73;8.00;;;42.20;26.60;;;;;;5082190;28;20234;-47
2023/07/11 12:48:09;;;;;;;8.20;7.60;;;42.20;26.20;;;;;;5077707;28;20202;-51
2023/07/11 12:50:48;;;;;;;8.52;7.72;;;42.40;26.20;;;;;;5065471;28;20206;-48
2023/07/11 12:53:14;;;;;;;8.30;7.38;;;42.50;25.90;;;;;;5071992;28;20195;-51
2023/07/11 12:55:44;;;;;;;8.85;8.10;;;42.50;26.00;;;;;;5073176;28;20853;-50
2023/07/11 12:58:17;;;;;;;8.88;8.10;;;42.60;25.60;;;;;;5075167;28;20199;-49